sensor_id;sensor_type;location;lat;lon;timestamp;P1;durP1;ratioP1;P2;durP2;ratioP2
13708;SDS011;54933;51.908;7.730;2023-02-16T00:00:11;2.23;;;1.73;;
13708;SDS011;54933;51.908;7.730;2023-02-16T00:02:41;2.03;;;1.83;;
13708;SDS011;54933;51.908;7.730;2023-02-16T00:05:23;1.77;;;1.67;;
13708;SDS011;54933;51.908;7.730;2023-02-16T00:07:53;1.87;;;1.70;;
13708;SDS011;54933;51.908;7.730;2023-02-16T00:10:19;6.37;;;2.10;;
13708;SDS011;54933;51.908;7.730;2023-02-16T00:12:45;1.97;;;1.60;;
13708;SDS011;54933;51.908;7.730;2023-02-16T00:15:29;1.67;;;1.57;;
13708;SDS011;54933;51.908;7.730;2023-02-16T00:17:56;2.70;;;1.70;;
13708;SDS011;54933;51.908;7.730;2023-02-16T00:20:23;1.90;;;1.70;;
13708;SDS011;54933;51.908;7.730;2023-02-16T00:22:49;1.77;;;1.67;;
13708;SDS011;54933;51.908;7.730;2023-02-16T00:25:14;1.97;;;1.83;;
13708;SDS011;54933;51.908;7.730;2023-02-16T00:27:39;1.77;;;1.67;;
13708;SDS011;54933;51.908;7.730;2023-02-16T00:32:40;2.20;;;2.00;;
13708;SDS011;54933;51.908;7.730;2023-02-16T00:35:23;2.03;;;1.93;;
13708;SDS011;54933;51.908;7.730;2023-02-16T00:37:48;1.90;;;1.80;;
13708;SDS011;54933;51.908;7.730;2023-02-16T00:40:14;2.00;;;1.90;;
13708;SDS011;54933;51.908;7.730;2023-02-16T00:42:41;2.53;;;1.77;;
13708;SDS011;54933;51.908;7.730;2023-02-16T00:45:15;2.30;;;2.10;;
13708;SDS011;54933;51.908;7.730;2023-02-16T00:47:44;2.30;;;1.80;;
13708;SDS011;54933;51.908;7.730;2023-02-16T00:50:19;1.83;;;1.73;;
13708;SDS011;54933;51.908;7.730;2023-02-16T00:52:50;2.33;;;1.83;;
13708;SDS011;54933;51.908;7.730;2023-02-16T00:57:53;1.77;;;1.67;;
13708;SDS011;54933;51.908;7.730;2023-02-16T01:00:34;2.47;;;1.87;;
13708;SDS011;54933;51.908;7.730;2023-02-16T01:03:04;1.80;;;1.70;;
13708;SDS011;54933;51.908;7.730;2023-02-16T01:05:31;2.00;;;1.60;;
13708;SDS011;54933;51.908;7.730;2023-02-16T01:07:57;2.03;;;1.93;;
13708;SDS011;54933;51.908;7.730;2023-02-16T01:10:41;1.87;;;1.77;;
13708;SDS011;54933;51.908;7.730;2023-02-16T01:13:25;2.83;;;1.70;;
13708;SDS011;54933;51.908;7.730;2023-02-16T01:15:53;2.17;;;1.90;;
13708;SDS011;54933;51.908;7.730;2023-02-16T01:18:19;2.23;;;1.97;;
13708;SDS011;54933;51.908;7.730;2023-02-16T01:20:45;1.90;;;1.80;;
13708;SDS011;54933;51.908;7.730;2023-02-16T01:23:11;1.93;;;1.83;;
13708;SDS011;54933;51.908;7.730;2023-02-16T01:25:36;1.80;;;1.70;;
13708;SDS011;54933;51.908;7.730;2023-02-16T01:28:03;1.97;;;1.87;;
13708;SDS011;54933;51.908;7.730;2023-02-16T01:30:44;1.83;;;1.70;;
13708;SDS011;54933;51.908;7.730;2023-02-16T01:33:09;2.17;;;2.00;;
13708;SDS011;54933;51.908;7.730;2023-02-16T01:35:34;2.10;;;1.93;;
13708;SDS011;54933;51.908;7.730;2023-02-16T01:38:00;2.37;;;2.00;;
13708;SDS011;54933;51.908;7.730;2023-02-16T01:42:59;2.40;;;2.20;;
13708;SDS011;54933;51.908;7.730;2023-02-16T01:45:32;2.33;;;2.07;;
13708;SDS011;54933;51.908;7.730;2023-02-16T01:48:04;1.63;;;1.53;;
13708;SDS011;54933;51.908;7.730;2023-02-16T01:50:42;1.97;;;1.73;;
13708;SDS011;54933;51.908;7.730;2023-02-16T01:53:17;1.70;;;1.60;;
13708;SDS011;54933;51.908;7.730;2023-02-16T01:55:48;1.80;;;1.70;;
13708;SDS011;54933;51.908;7.730;2023-02-16T01:58:34;2.10;;;2.00;;
13708;SDS011;54933;51.908;7.730;2023-02-16T02:04:16;1.93;;;1.50;;
13708;SDS011;54933;51.908;7.730;2023-02-16T02:07:04;1.97;;;1.83;;
13708;SDS011;54933;51.908;7.730;2023-02-16T02:12:11;2.13;;;1.80;;
13708;SDS011;54933;51.908;7.730;2023-02-16T02:14:49;1.73;;;1.63;;
13708;SDS011;54933;51.908;7.730;2023-02-16T02:17:16;2.00;;;1.80;;
13708;SDS011;54933;51.908;7.730;2023-02-16T02:19:48;1.90;;;1.80;;
13708;SDS011;54933;51.908;7.730;2023-02-16T02:28:20;2.60;;;2.00;;
13708;SDS011;54933;51.908;7.730;2023-02-16T02:31:09;2.07;;;1.90;;
13708;SDS011;54933;51.908;7.730;2023-02-16T02:33:53;2.30;;;2.10;;
13708;SDS011;54933;51.908;7.730;2023-02-16T02:36:37;2.00;;;1.90;;
13708;SDS011;54933;51.908;7.730;2023-02-16T02:41:51;1.87;;;1.77;;
13708;SDS011;54933;51.908;7.730;2023-02-16T02:44:31;3.20;;;2.20;;
13708;SDS011;54933;51.908;7.730;2023-02-16T02:47:10;1.80;;;1.70;;
13708;SDS011;54933;51.908;7.730;2023-02-16T02:49:35;1.90;;;1.80;;
13708;SDS011;54933;51.908;7.730;2023-02-16T02:52:01;2.13;;;1.93;;
13708;SDS011;54933;51.908;7.730;2023-02-16T02:54:33;2.97;;;2.20;;
13708;SDS011;54933;51.908;7.730;2023-02-16T03:03:17;2.20;;;2.00;;
13708;SDS011;54933;51.908;7.730;2023-02-16T03:05:48;1.90;;;1.80;;
13708;SDS011;54933;51.908;7.730;2023-02-16T03:08:18;1.97;;;1.70;;
13708;SDS011;54933;51.908;7.730;2023-02-16T03:10:51;2.03;;;1.83;;
13708;SDS011;54933;51.908;7.730;2023-02-16T03:13:39;2.07;;;1.97;;
13708;SDS011;54933;51.908;7.730;2023-02-16T03:16:29;1.90;;;1.80;;
13708;SDS011;54933;51.908;7.730;2023-02-16T03:18:58;2.23;;;2.07;;
13708;SDS011;54933;51.908;7.730;2023-02-16T03:21:44;1.80;;;1.70;;
13708;SDS011;54933;51.908;7.730;2023-02-16T03:24:29;2.50;;;2.03;;
13708;SDS011;54933;51.908;7.730;2023-02-16T03:27:18;2.07;;;1.90;;
13708;SDS011;54933;51.908;7.730;2023-02-16T03:30:06;1.70;;;1.60;;
13708;SDS011;54933;51.908;7.730;2023-02-16T03:32:34;1.90;;;1.80;;
13708;SDS011;54933;51.908;7.730;2023-02-16T03:34:59;2.77;;;2.20;;
13708;SDS011;54933;51.908;7.730;2023-02-16T03:37:24;1.77;;;1.67;;
13708;SDS011;54933;51.908;7.730;2023-02-16T03:39:50;2.10;;;1.90;;
13708;SDS011;54933;51.908;7.730;2023-02-16T03:42:34;1.70;;;1.60;;
13708;SDS011;54933;51.908;7.730;2023-02-16T03:44:59;1.97;;;1.87;;
13708;SDS011;54933;51.908;7.730;2023-02-16T03:47:25;1.73;;;1.63;;
13708;SDS011;54933;51.908;7.730;2023-02-16T03:49:50;1.80;;;1.70;;
13708;SDS011;54933;51.908;7.730;2023-02-16T03:52:15;2.53;;;2.03;;
13708;SDS011;54933;51.908;7.730;2023-02-16T03:54:40;1.97;;;1.80;;
13708;SDS011;54933;51.908;7.730;2023-02-16T03:57:05;2.20;;;2.00;;
13708;SDS011;54933;51.908;7.730;2023-02-16T03:59:31;1.77;;;1.67;;
13708;SDS011;54933;51.908;7.730;2023-02-16T04:01:56;2.10;;;1.90;;
13708;SDS011;54933;51.908;7.730;2023-02-16T04:04:21;1.83;;;1.73;;
13708;SDS011;54933;51.908;7.730;2023-02-16T04:06:47;1.73;;;1.63;;
13708;SDS011;54933;51.908;7.730;2023-02-16T04:09:12;2.20;;;2.00;;
13708;SDS011;54933;51.908;7.730;2023-02-16T04:11:37;2.50;;;2.30;;
13708;SDS011;54933;51.908;7.730;2023-02-16T04:14:21;1.93;;;1.77;;
13708;SDS011;54933;51.908;7.730;2023-02-16T04:16:46;2.00;;;1.90;;
13708;SDS011;54933;51.908;7.730;2023-02-16T04:19:12;1.77;;;1.67;;
13708;SDS011;54933;51.908;7.730;2023-02-16T04:21:37;2.93;;;2.00;;
13708;SDS011;54933;51.908;7.730;2023-02-16T04:24:03;1.80;;;1.70;;
13708;SDS011;54933;51.908;7.730;2023-02-16T04:26:29;1.90;;;1.80;;
13708;SDS011;54933;51.908;7.730;2023-02-16T04:28:55;2.30;;;2.10;;
13708;SDS011;54933;51.908;7.730;2023-02-16T04:31:21;1.90;;;1.80;;
13708;SDS011;54933;51.908;7.730;2023-02-16T04:33:46;2.33;;;1.93;;
13708;SDS011;54933;51.908;7.730;2023-02-16T04:36:11;1.87;;;1.77;;
13708;SDS011;54933;51.908;7.730;2023-02-16T04:38:36;1.83;;;1.70;;
13708;SDS011;54933;51.908;7.730;2023-02-16T04:41:02;1.93;;;1.73;;
13708;SDS011;54933;51.908;7.730;2023-02-16T04:43:27;2.13;;;1.93;;
13708;SDS011;54933;51.908;7.730;2023-02-16T04:45:52;2.30;;;2.10;;
13708;SDS011;54933;51.908;7.730;2023-02-16T04:48:17;2.57;;;1.77;;
13708;SDS011;54933;51.908;7.730;2023-02-16T04:50:43;2.30;;;1.90;;
13708;SDS011;54933;51.908;7.730;2023-02-16T04:53:08;2.40;;;2.10;;
13708;SDS011;54933;51.908;7.730;2023-02-16T04:55:33;2.30;;;1.93;;
13708;SDS011;54933;51.908;7.730;2023-02-16T04:57:59;2.33;;;2.13;;
13708;SDS011;54933;51.908;7.730;2023-02-16T05:00:24;2.10;;;2.00;;
13708;SDS011;54933;51.908;7.730;2023-02-16T05:02:49;2.13;;;1.93;;
13708;SDS011;54933;51.908;7.730;2023-02-16T05:05:15;2.17;;;2.00;;
13708;SDS011;54933;51.908;7.730;2023-02-16T05:07:40;2.10;;;2.00;;
13708;SDS011;54933;51.908;7.730;2023-02-16T05:10:05;2.00;;;1.90;;
13708;SDS011;54933;51.908;7.730;2023-02-16T05:12:31;1.93;;;1.83;;
13708;SDS011;54933;51.908;7.730;2023-02-16T05:15:15;1.57;;;1.50;;
13708;SDS011;54933;51.908;7.730;2023-02-16T05:17:40;2.17;;;1.97;;
13708;SDS011;54933;51.908;7.730;2023-02-16T05:20:06;2.20;;;2.00;;
13708;SDS011;54933;51.908;7.730;2023-02-16T05:22:32;2.20;;;1.73;;
13708;SDS011;54933;51.908;7.730;2023-02-16T05:24:58;1.90;;;1.80;;
13708;SDS011;54933;51.908;7.730;2023-02-16T05:27:27;2.17;;;2.00;;
13708;SDS011;54933;51.908;7.730;2023-02-16T05:29:54;2.17;;;2.00;;
13708;SDS011;54933;51.908;7.730;2023-02-16T05:32:20;1.80;;;1.70;;
13708;SDS011;54933;51.908;7.730;2023-02-16T05:34:45;2.17;;;2.07;;
13708;SDS011;54933;51.908;7.730;2023-02-16T05:37:11;2.13;;;2.03;;
13708;SDS011;54933;51.908;7.730;2023-02-16T05:39:38;2.10;;;1.80;;
13708;SDS011;54933;51.908;7.730;2023-02-16T05:42:03;1.77;;;1.67;;
13708;SDS011;54933;51.908;7.730;2023-02-16T05:44:29;2.83;;;2.00;;
13708;SDS011;54933;51.908;7.730;2023-02-16T05:46:54;1.80;;;1.70;;
13708;SDS011;54933;51.908;7.730;2023-02-16T05:49:19;2.30;;;2.13;;
13708;SDS011;54933;51.908;7.730;2023-02-16T05:51:45;2.20;;;1.87;;
13708;SDS011;54933;51.908;7.730;2023-02-16T05:54:10;2.53;;;2.33;;
13708;SDS011;54933;51.908;7.730;2023-02-16T05:56:41;2.20;;;1.97;;
13708;SDS011;54933;51.908;7.730;2023-02-16T05:59:14;2.50;;;2.10;;
13708;SDS011;54933;51.908;7.730;2023-02-16T06:01:40;2.73;;;2.40;;
13708;SDS011;54933;51.908;7.730;2023-02-16T06:04:10;2.47;;;2.27;;
13708;SDS011;54933;51.908;7.730;2023-02-16T06:06:37;2.20;;;2.10;;
13708;SDS011;54933;51.908;7.730;2023-02-16T06:09:06;2.30;;;2.20;;
13708;SDS011;54933;51.908;7.730;2023-02-16T06:11:32;3.97;;;1.97;;
13708;SDS011;54933;51.908;7.730;2023-02-16T06:16:30;4.50;;;2.27;;
13708;SDS011;54933;51.908;7.730;2023-02-16T06:18:58;4.43;;;2.63;;
13708;SDS011;54933;51.908;7.730;2023-02-16T06:21:24;3.30;;;2.33;;
13708;SDS011;54933;51.908;7.730;2023-02-16T06:23:49;19.93;;;10.43;;
13708;SDS011;54933;51.908;7.730;2023-02-16T06:26:15;60.03;;;13.30;;
13708;SDS011;54933;51.908;7.730;2023-02-16T06:28:41;195.50;;;21.60;;
13708;SDS011;54933;51.908;7.730;2023-02-16T06:31:07;99.20;;;17.80;;
13708;SDS011;54933;51.908;7.730;2023-02-16T06:33:32;44.03;;;9.80;;
13708;SDS011;54933;51.908;7.730;2023-02-16T06:35:58;67.63;;;10.23;;
13708;SDS011;54933;51.908;7.730;2023-02-16T06:38:23;50.97;;;10.07;;
13708;SDS011;54933;51.908;7.730;2023-02-16T06:40:52;44.97;;;8.63;;
13708;SDS011;54933;51.908;7.730;2023-02-16T06:43:18;26.63;;;7.43;;
13708;SDS011;54933;51.908;7.730;2023-02-16T06:45:43;41.03;;;7.73;;
13708;SDS011;54933;51.908;7.730;2023-02-16T06:48:08;27.73;;;7.50;;
13708;SDS011;54933;51.908;7.730;2023-02-16T06:50:34;35.10;;;6.70;;
13708;SDS011;54933;51.908;7.730;2023-02-16T06:52:59;26.73;;;6.63;;
13708;SDS011;54933;51.908;7.730;2023-02-16T06:55:24;32.00;;;5.77;;
13708;SDS011;54933;51.908;7.730;2023-02-16T06:57:50;23.97;;;5.47;;
13708;SDS011;54933;51.908;7.730;2023-02-16T07:00:15;29.43;;;5.70;;
13708;SDS011;54933;51.908;7.730;2023-02-16T07:02:41;23.37;;;5.67;;
13708;SDS011;54933;51.908;7.730;2023-02-16T07:05:07;15.50;;;5.23;;
13708;SDS011;54933;51.908;7.730;2023-02-16T07:07:33;19.90;;;4.87;;
13708;SDS011;54933;51.908;7.730;2023-02-16T07:09:58;14.43;;;4.70;;
13708;SDS011;54933;51.908;7.730;2023-02-16T07:12:23;20.83;;;5.10;;
13708;SDS011;54933;51.908;7.730;2023-02-16T07:14:49;14.33;;;4.67;;
13708;SDS011;54933;51.908;7.730;2023-02-16T07:17:14;16.90;;;5.00;;
13708;SDS011;54933;51.908;7.730;2023-02-16T07:19:39;19.30;;;4.77;;
13708;SDS011;54933;51.908;7.730;2023-02-16T07:22:05;13.80;;;4.80;;
13708;SDS011;54933;51.908;7.730;2023-02-16T07:24:30;20.10;;;4.43;;
13708;SDS011;54933;51.908;7.730;2023-02-16T07:26:55;11.10;;;4.37;;
13708;SDS011;54933;51.908;7.730;2023-02-16T07:29:21;10.20;;;4.10;;
13708;SDS011;54933;51.908;7.730;2023-02-16T07:31:47;16.90;;;5.17;;
13708;SDS011;54933;51.908;7.730;2023-02-16T07:34:12;12.53;;;3.93;;
13708;SDS011;54933;51.908;7.730;2023-02-16T07:36:37;12.10;;;3.90;;
13708;SDS011;54933;51.908;7.730;2023-02-16T07:39:03;11.40;;;3.97;;
13708;SDS011;54933;51.908;7.730;2023-02-16T07:41:28;12.07;;;4.73;;
13708;SDS011;54933;51.908;7.730;2023-02-16T07:43:53;8.73;;;3.37;;
13708;SDS011;54933;51.908;7.730;2023-02-16T07:46:19;10.30;;;3.77;;
13708;SDS011;54933;51.908;7.730;2023-02-16T07:48:47;13.30;;;3.83;;
13708;SDS011;54933;51.908;7.730;2023-02-16T07:51:19;11.67;;;3.70;;
13708;SDS011;54933;51.908;7.730;2023-02-16T07:53:45;8.63;;;3.23;;
13708;SDS011;54933;51.908;7.730;2023-02-16T07:56:17;7.70;;;3.37;;
13708;SDS011;54933;51.908;7.730;2023-02-16T07:58:47;9.93;;;3.40;;
13708;SDS011;54933;51.908;7.730;2023-02-16T08:01:12;10.90;;;3.00;;
13708;SDS011;54933;51.908;7.730;2023-02-16T08:03:38;7.83;;;3.23;;
13708;SDS011;54933;51.908;7.730;2023-02-16T08:06:05;5.93;;;2.90;;
13708;SDS011;54933;51.908;7.730;2023-02-16T08:08:31;7.20;;;3.27;;
13708;SDS011;54933;51.908;7.730;2023-02-16T08:10:57;8.57;;;3.10;;
13708;SDS011;54933;51.908;7.730;2023-02-16T08:13:22;6.60;;;2.93;;
13708;SDS011;54933;51.908;7.730;2023-02-16T08:15:47;6.43;;;3.27;;
13708;SDS011;54933;51.908;7.730;2023-02-16T08:18:13;10.07;;;3.23;;
13708;SDS011;54933;51.908;7.730;2023-02-16T08:20:39;18.90;;;5.53;;
13708;SDS011;54933;51.908;7.730;2023-02-16T08:23:05;7.83;;;4.40;;
13708;SDS011;54933;51.908;7.730;2023-02-16T08:25:35;7.77;;;4.57;;
13708;SDS011;54933;51.908;7.730;2023-02-16T08:28:01;9.07;;;4.10;;
13708;SDS011;54933;51.908;7.730;2023-02-16T08:30:27;8.37;;;4.07;;
13708;SDS011;54933;51.908;7.730;2023-02-16T08:32:53;7.20;;;4.47;;
13708;SDS011;54933;51.908;7.730;2023-02-16T08:35:20;7.30;;;4.70;;
13708;SDS011;54933;51.908;7.730;2023-02-16T08:37:46;7.03;;;4.13;;
13708;SDS011;54933;51.908;7.730;2023-02-16T08:40:11;8.93;;;4.27;;
13708;SDS011;54933;51.908;7.730;2023-02-16T08:42:36;11.07;;;4.60;;
13708;SDS011;54933;51.908;7.730;2023-02-16T08:45:02;8.57;;;4.10;;
13708;SDS011;54933;51.908;7.730;2023-02-16T08:47:29;16.07;;;4.47;;
13708;SDS011;54933;51.908;7.730;2023-02-16T08:49:55;21.53;;;4.17;;
13708;SDS011;54933;51.908;7.730;2023-02-16T08:52:20;13.10;;;4.37;;
13708;SDS011;54933;51.908;7.730;2023-02-16T08:54:45;12.07;;;4.23;;
13708;SDS011;54933;51.908;7.730;2023-02-16T08:57:11;12.20;;;3.80;;
13708;SDS011;54933;51.908;7.730;2023-02-16T08:59:37;13.03;;;4.20;;
13708;SDS011;54933;51.908;7.730;2023-02-16T09:02:02;11.03;;;3.77;;
13708;SDS011;54933;51.908;7.730;2023-02-16T09:04:28;7.70;;;3.60;;
13708;SDS011;54933;51.908;7.730;2023-02-16T09:06:54;16.47;;;4.17;;
13708;SDS011;54933;51.908;7.730;2023-02-16T09:09:22;10.13;;;3.93;;
13708;SDS011;54933;51.908;7.730;2023-02-16T09:11:48;9.10;;;4.13;;
13708;SDS011;54933;51.908;7.730;2023-02-16T09:14:14;6.90;;;4.47;;
13708;SDS011;54933;51.908;7.730;2023-02-16T09:16:42;7.47;;;4.20;;
13708;SDS011;54933;51.908;7.730;2023-02-16T09:19:14;6.50;;;3.97;;
13708;SDS011;54933;51.908;7.730;2023-02-16T09:21:41;6.73;;;4.33;;
13708;SDS011;54933;51.908;7.730;2023-02-16T09:24:07;10.03;;;3.53;;
13708;SDS011;54933;51.908;7.730;2023-02-16T09:26:34;6.27;;;3.47;;
13708;SDS011;54933;51.908;7.730;2023-02-16T09:29:06;7.63;;;4.47;;
13708;SDS011;54933;51.908;7.730;2023-02-16T09:31:32;5.17;;;4.00;;
13708;SDS011;54933;51.908;7.730;2023-02-16T09:36:43;6.83;;;3.90;;
13708;SDS011;54933;51.908;7.730;2023-02-16T09:39:09;9.30;;;3.80;;
13708;SDS011;54933;51.908;7.730;2023-02-16T09:44:52;8.57;;;4.13;;
13708;SDS011;54933;51.908;7.730;2023-02-16T09:47:30;6.73;;;3.53;;
13708;SDS011;54933;51.908;7.730;2023-02-16T09:50:20;7.23;;;3.83;;
13708;SDS011;54933;51.908;7.730;2023-02-16T09:55:55;4.30;;;3.30;;
13708;SDS011;54933;51.908;7.730;2023-02-16T09:58:32;6.40;;;3.83;;
13708;SDS011;54933;51.908;7.730;2023-02-16T10:01:24;4.93;;;3.50;;
13708;SDS011;54933;51.908;7.730;2023-02-16T10:09:55;4.87;;;3.67;;
13708;SDS011;54933;51.908;7.730;2023-02-16T10:12:23;5.33;;;3.63;;
13708;SDS011;54933;51.908;7.730;2023-02-16T10:14:54;6.17;;;3.60;;
13708;SDS011;54933;51.908;7.730;2023-02-16T10:22:44;8.20;;;5.20;;
13708;SDS011;54933;51.908;7.730;2023-02-16T10:25:15;7.73;;;5.30;;
13708;SDS011;54933;51.908;7.730;2023-02-16T10:27:51;8.00;;;4.83;;
13708;SDS011;54933;51.908;7.730;2023-02-16T10:30:27;7.53;;;4.90;;
13708;SDS011;54933;51.908;7.730;2023-02-16T10:32:56;5.70;;;3.93;;
13708;SDS011;54933;51.908;7.730;2023-02-16T10:36:00;7.60;;;4.87;;
13708;SDS011;54933;51.908;7.730;2023-02-16T10:38:30;5.03;;;4.10;;
13708;SDS011;54933;51.908;7.730;2023-02-16T10:41:26;7.30;;;4.20;;
13708;SDS011;54933;51.908;7.730;2023-02-16T10:44:00;8.57;;;3.93;;
13708;SDS011;54933;51.908;7.730;2023-02-16T10:46:37;4.43;;;3.63;;
13708;SDS011;54933;51.908;7.730;2023-02-16T10:49:08;6.17;;;4.07;;
13708;SDS011;54933;51.908;7.730;2023-02-16T10:51:38;5.87;;;3.63;;
13708;SDS011;54933;51.908;7.730;2023-02-16T10:54:13;8.07;;;4.00;;
13708;SDS011;54933;51.908;7.730;2023-02-16T11:01:50;5.93;;;3.57;;
13708;SDS011;54933;51.908;7.730;2023-02-16T11:04:37;5.47;;;3.60;;
13708;SDS011;54933;51.908;7.730;2023-02-16T11:09:35;3.17;;;2.83;;
13708;SDS011;54933;51.908;7.730;2023-02-16T11:14:53;4.00;;;3.10;;
13708;SDS011;54933;51.908;7.730;2023-02-16T11:17:21;4.43;;;3.50;;
13708;SDS011;54933;51.908;7.730;2023-02-16T11:19:58;3.50;;;3.20;;
13708;SDS011;54933;51.908;7.730;2023-02-16T11:27:56;5.17;;;3.40;;
13708;SDS011;54933;51.908;7.730;2023-02-16T11:30:28;3.30;;;3.00;;
13708;SDS011;54933;51.908;7.730;2023-02-16T11:33:03;3.73;;;3.37;;
13708;SDS011;54933;51.908;7.730;2023-02-16T11:35:42;5.37;;;3.43;;
13708;SDS011;54933;51.908;7.730;2023-02-16T11:38:22;4.50;;;2.93;;
13708;SDS011;54933;51.908;7.730;2023-02-16T11:40:50;3.93;;;3.10;;
13708;SDS011;54933;51.908;7.730;2023-02-16T11:43:17;3.80;;;3.40;;
13708;SDS011;54933;51.908;7.730;2023-02-16T11:45:43;3.37;;;3.03;;
13708;SDS011;54933;51.908;7.730;2023-02-16T11:48:13;4.00;;;2.97;;
13708;SDS011;54933;51.908;7.730;2023-02-16T11:50:54;2.90;;;2.63;;
13708;SDS011;54933;51.908;7.730;2023-02-16T11:53:26;5.30;;;2.93;;
13708;SDS011;54933;51.908;7.730;2023-02-16T11:56:08;3.47;;;2.90;;
13708;SDS011;54933;51.908;7.730;2023-02-16T12:04:41;5.33;;;3.03;;
13708;SDS011;54933;51.908;7.730;2023-02-16T12:10:09;3.17;;;2.50;;
13708;SDS011;54933;51.908;7.730;2023-02-16T12:13:00;2.93;;;2.30;;
13708;SDS011;54933;51.908;7.730;2023-02-16T12:15:38;4.67;;;2.57;;
13708;SDS011;54933;51.908;7.730;2023-02-16T12:20:51;3.10;;;2.40;;
13708;SDS011;54933;51.908;7.730;2023-02-16T12:32:21;3.17;;;2.70;;
13708;SDS011;54933;51.908;7.730;2023-02-16T12:34:58;3.27;;;3.03;;
13708;SDS011;54933;51.908;7.730;2023-02-16T12:43:37;2.93;;;2.63;;
13708;SDS011;54933;51.908;7.730;2023-02-16T12:49:01;2.90;;;2.60;;
13708;SDS011;54933;51.908;7.730;2023-02-16T12:52:00;3.00;;;2.57;;
13708;SDS011;54933;51.908;7.730;2023-02-16T12:54:42;2.53;;;2.33;;
13708;SDS011;54933;51.908;7.730;2023-02-16T12:57:13;3.53;;;2.67;;
13708;SDS011;54933;51.908;7.730;2023-02-16T12:59:48;2.30;;;2.10;;
13708;SDS011;54933;51.908;7.730;2023-02-16T13:02:26;3.33;;;2.37;;
13708;SDS011;54933;51.908;7.730;2023-02-16T13:05:05;3.00;;;2.53;;
13708;SDS011;54933;51.908;7.730;2023-02-16T13:07:38;6.43;;;3.13;;
13708;SDS011;54933;51.908;7.730;2023-02-16T13:10:17;8.10;;;2.30;;
13708;SDS011;54933;51.908;7.730;2023-02-16T13:12:53;15.20;;;2.70;;
13708;SDS011;54933;51.908;7.730;2023-02-16T13:18:02;10.77;;;3.20;;
13708;SDS011;54933;51.908;7.730;2023-02-16T13:20:31;8.13;;;2.70;;
13708;SDS011;54933;51.908;7.730;2023-02-16T13:39:45;3.90;;;2.37;;
13708;SDS011;54933;51.908;7.730;2023-02-16T13:42:53;4.27;;;2.77;;
13708;SDS011;54933;51.908;7.730;2023-02-16T13:45:33;5.43;;;2.70;;
13708;SDS011;54933;51.908;7.730;2023-02-16T13:48:15;3.57;;;2.30;;
13708;SDS011;54933;51.908;7.730;2023-02-16T13:50:53;8.43;;;2.80;;
13708;SDS011;54933;51.908;7.730;2023-02-16T13:53:24;3.20;;;2.23;;
13708;SDS011;54933;51.908;7.730;2023-02-16T13:58:56;3.47;;;2.17;;
13708;SDS011;54933;51.908;7.730;2023-02-16T14:03:52;4.07;;;2.77;;
13708;SDS011;54933;51.908;7.730;2023-02-16T14:06:28;3.43;;;2.70;;
13708;SDS011;54933;51.908;7.730;2023-02-16T14:14:28;8.33;;;2.90;;
13708;SDS011;54933;51.908;7.730;2023-02-16T14:22:50;3.83;;;2.40;;
13708;SDS011;54933;51.908;7.730;2023-02-16T14:27:50;2.93;;;2.53;;
13708;SDS011;54933;51.908;7.730;2023-02-16T14:30:30;3.67;;;2.20;;
13708;SDS011;54933;51.908;7.730;2023-02-16T14:38:23;2.10;;;1.97;;
13708;SDS011;54933;51.908;7.730;2023-02-16T14:40:53;5.50;;;2.50;;
13708;SDS011;54933;51.908;7.730;2023-02-16T14:57:33;2.23;;;2.10;;
13708;SDS011;54933;51.908;7.730;2023-02-16T15:02:58;23.83;;;3.43;;
13708;SDS011;54933;51.908;7.730;2023-02-16T15:05:39;6.93;;;2.77;;
13708;SDS011;54933;51.908;7.730;2023-02-16T15:10:41;14.77;;;3.17;;
13708;SDS011;54933;51.908;7.730;2023-02-16T15:13:17;13.30;;;3.13;;
13708;SDS011;54933;51.908;7.730;2023-02-16T15:15:45;8.73;;;2.93;;
13708;SDS011;54933;51.908;7.730;2023-02-16T15:18:19;82.23;;;9.37;;
13708;SDS011;54933;51.908;7.730;2023-02-16T15:20:48;40.43;;;7.20;;
13708;SDS011;54933;51.908;7.730;2023-02-16T15:25:53;24.70;;;5.77;;
13708;SDS011;54933;51.908;7.730;2023-02-16T15:28:24;14.90;;;4.63;;
13708;SDS011;54933;51.908;7.730;2023-02-16T15:30:56;14.43;;;4.43;;
13708;SDS011;54933;51.908;7.730;2023-02-16T15:35:52;16.50;;;4.33;;
13708;SDS011;54933;51.908;7.730;2023-02-16T15:41:04;15.73;;;3.87;;
13708;SDS011;54933;51.908;7.730;2023-02-16T15:43:36;15.97;;;3.97;;
13708;SDS011;54933;51.908;7.730;2023-02-16T15:46:14;8.37;;;3.93;;
13708;SDS011;54933;51.908;7.730;2023-02-16T15:48:47;10.40;;;4.10;;
13708;SDS011;54933;51.908;7.730;2023-02-16T15:51:21;11.57;;;3.73;;
13708;SDS011;54933;51.908;7.730;2023-02-16T15:53:55;10.87;;;3.80;;
13708;SDS011;54933;51.908;7.730;2023-02-16T15:58:59;15.00;;;3.77;;
13708;SDS011;54933;51.908;7.730;2023-02-16T16:01:31;72.67;;;15.83;;
13708;SDS011;54933;51.908;7.730;2023-02-16T16:03:59;18.60;;;6.90;;
13708;SDS011;54933;51.908;7.730;2023-02-16T16:06:30;23.73;;;5.20;;
13708;SDS011;54933;51.908;7.730;2023-02-16T16:08:57;27.37;;;5.40;;
13708;SDS011;54933;51.908;7.730;2023-02-16T16:11:23;24.30;;;6.30;;
13708;SDS011;54933;51.908;7.730;2023-02-16T16:13:48;19.70;;;5.60;;
13708;SDS011;54933;51.908;7.730;2023-02-16T16:16:14;27.50;;;7.40;;
13708;SDS011;54933;51.908;7.730;2023-02-16T16:18:41;21.80;;;4.10;;
13708;SDS011;54933;51.908;7.730;2023-02-16T16:21:24;16.17;;;4.87;;
13708;SDS011;54933;51.908;7.730;2023-02-16T16:26:20;13.43;;;4.30;;
13708;SDS011;54933;51.908;7.730;2023-02-16T16:28:47;12.63;;;4.60;;
13708;SDS011;54933;51.908;7.730;2023-02-16T16:36:32;13.90;;;4.90;;
13708;SDS011;54933;51.908;7.730;2023-02-16T16:39:22;17.67;;;5.47;;
13708;SDS011;54933;51.908;7.730;2023-02-16T16:44:28;14.90;;;4.70;;
13708;SDS011;54933;51.908;7.730;2023-02-16T16:47:11;8.67;;;4.57;;
13708;SDS011;54933;51.908;7.730;2023-02-16T16:49:50;19.10;;;4.83;;
13708;SDS011;54933;51.908;7.730;2023-02-16T16:52:27;7.87;;;4.37;;
13708;SDS011;54933;51.908;7.730;2023-02-16T16:54:54;11.30;;;4.40;;
13708;SDS011;54933;51.908;7.730;2023-02-16T16:57:19;7.70;;;4.63;;
13708;SDS011;54933;51.908;7.730;2023-02-16T16:59:45;10.20;;;4.30;;
13708;SDS011;54933;51.908;7.730;2023-02-16T17:02:10;9.30;;;4.00;;
13708;SDS011;54933;51.908;7.730;2023-02-16T17:04:35;7.87;;;3.60;;
13708;SDS011;54933;51.908;7.730;2023-02-16T17:07:01;8.80;;;3.40;;
13708;SDS011;54933;51.908;7.730;2023-02-16T17:09:26;10.27;;;4.27;;
13708;SDS011;54933;51.908;7.730;2023-02-16T17:11:51;5.67;;;3.90;;
13708;SDS011;54933;51.908;7.730;2023-02-16T17:14:17;6.73;;;3.40;;
13708;SDS011;54933;51.908;7.730;2023-02-16T17:16:46;5.90;;;3.63;;
13708;SDS011;54933;51.908;7.730;2023-02-16T17:19:15;6.90;;;3.73;;
13708;SDS011;54933;51.908;7.730;2023-02-16T17:21:42;4.83;;;3.20;;
13708;SDS011;54933;51.908;7.730;2023-02-16T17:24:08;8.77;;;3.70;;
13708;SDS011;54933;51.908;7.730;2023-02-16T17:26:34;8.63;;;3.37;;
13708;SDS011;54933;51.908;7.730;2023-02-16T17:29:00;9.23;;;3.73;;
13708;SDS011;54933;51.908;7.730;2023-02-16T17:31:25;10.00;;;3.10;;
13708;SDS011;54933;51.908;7.730;2023-02-16T17:33:50;5.07;;;3.53;;
13708;SDS011;54933;51.908;7.730;2023-02-16T17:36:16;6.10;;;4.30;;
13708;SDS011;54933;51.908;7.730;2023-02-16T17:38:42;7.17;;;3.53;;
13708;SDS011;54933;51.908;7.730;2023-02-16T17:41:19;7.80;;;3.47;;
13708;SDS011;54933;51.908;7.730;2023-02-16T17:43:47;10.87;;;3.60;;
13708;SDS011;54933;51.908;7.730;2023-02-16T17:46:13;5.23;;;3.23;;
13708;SDS011;54933;51.908;7.730;2023-02-16T17:48:39;6.03;;;3.27;;
13708;SDS011;54933;51.908;7.730;2023-02-16T17:51:05;5.23;;;3.27;;
13708;SDS011;54933;51.908;7.730;2023-02-16T17:53:37;4.40;;;3.07;;
13708;SDS011;54933;51.908;7.730;2023-02-16T17:56:02;5.27;;;3.10;;
13708;SDS011;54933;51.908;7.730;2023-02-16T17:58:28;5.23;;;3.37;;
13708;SDS011;54933;51.908;7.730;2023-02-16T18:00:53;6.13;;;3.03;;